createdAt,value
2019-05-22T00:00:48.669Z,993.11
2019-05-22T00:01:48.510Z,993.07
2019-05-22T00:02:48.513Z,993.10
2019-05-22T00:03:48.474Z,993.06
2019-05-22T00:04:48.462Z,993.06
2019-05-22T00:05:48.457Z,993.12
2019-05-22T00:06:48.448Z,993.08
2019-05-22T00:07:48.460Z,993.10
2019-05-22T00:08:48.429Z,993.07
2019-05-22T00:09:48.411Z,993.08
2019-05-22T00:10:48.398Z,993.12
2019-05-22T00:11:48.389Z,993.12
2019-05-22T00:12:49.967Z,993.06
2019-05-22T00:13:48.388Z,993.15
2019-05-22T00:14:48.365Z,993.09
2019-05-22T00:15:48.347Z,993.12
2019-05-22T00:16:48.343Z,993.14
2019-05-22T00:17:48.332Z,993.18
2019-05-22T00:18:48.375Z,993.20
2019-05-22T00:19:49.137Z,993.14
2019-05-22T00:20:48.294Z,993.19
2019-05-22T00:21:48.283Z,993.18
2019-05-22T00:22:48.316Z,993.18
2019-05-22T00:23:48.292Z,993.22
2019-05-22T00:24:48.252Z,993.20
2019-05-22T00:25:48.251Z,993.24
2019-05-22T00:26:48.232Z,993.21
2019-05-22T00:27:48.221Z,993.28
2019-05-22T00:28:48.241Z,993.29
2019-05-22T00:29:48.225Z,993.29
2019-05-22T00:30:48.189Z,993.31
2019-05-22T00:31:48.179Z,993.28
2019-05-22T00:32:48.169Z,993.30
2019-05-22T00:33:48.307Z,993.33
2019-05-22T00:34:48.148Z,993.34
2019-05-22T00:35:48.128Z,993.28
2019-05-22T00:36:49.988Z,993.29
2019-05-22T00:37:48.119Z,993.29
2019-05-22T00:38:48.133Z,993.33
2019-05-22T00:39:48.095Z,993.30
2019-05-22T00:40:48.088Z,993.28
2019-05-22T00:41:48.065Z,993.32
2019-05-22T00:43:02.912Z,993.35
2019-05-22T00:43:49.082Z,993.29
2019-05-22T00:44:48.042Z,993.27
2019-05-22T00:45:48.674Z,993.34
2019-05-22T00:46:48.021Z,993.30
2019-05-22T00:47:48.011Z,993.33
2019-05-22T00:48:48.029Z,993.33
2019-05-22T00:49:48.051Z,993.35
2019-05-22T00:50:47.980Z,993.32
2019-05-22T00:51:47.969Z,993.34
2019-05-22T00:52:47.991Z,993.32
2019-05-22T00:53:48.009Z,993.31
2019-05-22T00:54:47.935Z,993.29
2019-05-22T00:55:48.585Z,993.31
2019-05-22T00:56:48.680Z,993.32
2019-05-22T00:57:47.905Z,993.28
2019-05-22T00:58:48.809Z,993.31
2019-05-22T00:59:47.898Z,993.35
2019-05-22T01:00:47.866Z,993.36
2019-05-22T01:01:47.870Z,993.31
2019-05-22T01:02:47.846Z,993.32
2019-05-22T01:03:47.864Z,993.32
2019-05-22T01:04:47.825Z,993.30
2019-05-22T01:05:47.814Z,993.30
2019-05-22T01:06:47.810Z,993.31
2019-05-22T01:07:47.806Z,993.32
2019-05-22T01:08:47.812Z,993.30
2019-05-22T01:09:47.782Z,993.24
2019-05-22T01:10:47.771Z,993.26
2019-05-22T01:11:47.752Z,993.27
2019-05-22T01:12:47.741Z,993.28
2019-05-22T01:13:47.792Z,993.24
2019-05-22T01:14:47.721Z,993.29
2019-05-22T01:15:47.710Z,993.23
2019-05-22T01:16:47.701Z,993.30
2019-05-22T01:17:47.689Z,993.32
2019-05-22T01:18:47.706Z,993.28
2019-05-22T01:19:47.668Z,993.29
2019-05-22T01:20:47.657Z,993.25
2019-05-22T01:21:47.647Z,993.31
2019-05-22T01:22:48.246Z,993.29
2019-05-22T01:23:47.666Z,993.23
2019-05-22T01:24:47.617Z,993.20
2019-05-22T01:25:47.614Z,993.25
2019-05-22T01:26:47.594Z,993.24
2019-05-22T01:27:47.584Z,993.26
2019-05-22T01:28:47.575Z,993.26
2019-05-22T01:29:47.593Z,993.31
2019-05-22T01:30:47.552Z,993.26
2019-05-22T01:31:47.566Z,993.22
2019-05-22T01:32:47.537Z,993.30
2019-05-22T01:33:47.521Z,993.23
2019-05-22T01:34:48.382Z,993.26
2019-05-22T01:35:48.266Z,993.24
2019-05-22T01:36:47.506Z,993.27
2019-05-22T01:37:47.478Z,993.30
2019-05-22T01:38:47.526Z,993.30
2019-05-22T01:39:47.506Z,993.26
2019-05-22T01:40:47.461Z,993.22
2019-05-22T01:41:48.946Z,993.26
2019-05-22T01:42:49.157Z,993.20
2019-05-22T01:43:47.416Z,993.22
2019-05-22T01:45:00.313Z,993.24
2019-05-22T01:45:48.416Z,993.23
2019-05-22T01:46:47.407Z,993.19
2019-05-22T01:47:47.372Z,993.25
2019-05-22T01:48:47.364Z,993.22
2019-05-22T01:49:47.404Z,993.22
2019-05-22T01:50:47.873Z,993.17
2019-05-22T01:51:47.334Z,993.24
2019-05-22T01:52:47.323Z,993.22
2019-05-22T01:53:47.311Z,993.25
2019-05-22T01:54:47.323Z,993.26
2019-05-22T01:55:47.291Z,993.26
2019-05-22T01:56:47.281Z,993.31
2019-05-22T01:57:48.259Z,993.29
2019-05-22T01:58:47.259Z,993.34
2019-05-22T01:59:47.271Z,993.34
2019-05-22T02:00:47.250Z,993.41
2019-05-22T02:01:47.238Z,993.34
2019-05-22T02:02:47.216Z,993.33
2019-05-22T02:03:47.213Z,993.37
2019-05-22T02:04:47.218Z,993.36
2019-05-22T02:05:47.181Z,993.38
2019-05-22T02:06:47.168Z,993.41
2019-05-22T02:07:47.166Z,993.33
2019-05-22T02:08:47.153Z,993.34
2019-05-22T02:09:47.195Z,993.35
2019-05-22T02:10:47.126Z,993.29
2019-05-22T02:11:47.899Z,993.36
2019-05-22T02:12:47.985Z,993.30
2019-05-22T02:13:47.100Z,993.33
2019-05-22T02:14:47.096Z,993.38
2019-05-22T02:15:47.107Z,993.35
2019-05-22T02:16:56.564Z,993.41
2019-05-22T02:17:48.131Z,993.39
2019-05-22T02:18:47.048Z,993.38
2019-05-22T02:19:47.119Z,993.42
2019-05-22T02:20:47.987Z,993.37
2019-05-22T02:21:47.092Z,993.36
2019-05-22T02:22:47.010Z,993.37
2019-05-22T02:23:47.769Z,993.36
2019-05-22T02:24:47.006Z,993.34
2019-05-22T02:25:47.203Z,993.37
2019-05-22T02:26:46.968Z,993.37
2019-05-22T02:27:46.956Z,993.39
2019-05-22T02:28:46.945Z,993.42
2019-05-22T02:29:46.927Z,993.39
2019-05-22T02:30:46.946Z,993.42
2019-05-22T02:31:47.847Z,993.37
2019-05-22T02:32:46.897Z,993.42
2019-05-22T02:33:46.926Z,993.44
2019-05-22T02:34:46.875Z,993.51
2019-05-22T02:35:47.398Z,993.40
2019-05-22T02:36:46.853Z,993.51
2019-05-22T02:37:46.843Z,993.44
2019-05-22T02:38:46.833Z,993.51
2019-05-22T02:39:46.828Z,993.48
2019-05-22T02:40:46.845Z,993.56
2019-05-22T02:41:46.803Z,993.58
2019-05-22T02:42:46.791Z,993.55
2019-05-22T02:43:46.782Z,993.53
2019-05-22T02:44:46.772Z,993.51
2019-05-22T02:45:46.789Z,993.52
2019-05-22T02:46:46.756Z,993.56
2019-05-22T02:47:46.759Z,993.59
2019-05-22T02:48:46.729Z,993.60
2019-05-22T02:49:46.718Z,993.61
2019-05-22T02:50:46.761Z,993.70
2019-05-22T02:51:46.698Z,993.69
2019-05-22T02:52:46.690Z,993.66
2019-05-22T02:53:46.678Z,993.66
2019-05-22T02:54:46.667Z,993.76
2019-05-22T02:55:46.655Z,993.71
2019-05-22T02:56:46.672Z,993.72
2019-05-22T02:57:46.636Z,993.74
2019-05-22T02:58:46.627Z,993.75
2019-05-22T02:59:46.614Z,993.77
2019-05-22T03:00:46.608Z,993.70
2019-05-22T03:01:46.621Z,993.75
2019-05-22T03:02:46.583Z,993.70
2019-05-22T03:03:46.572Z,993.69
2019-05-22T03:04:46.562Z,993.70
2019-05-22T03:05:46.565Z,993.73
2019-05-22T03:06:46.559Z,993.67
2019-05-22T03:07:46.530Z,993.80
2019-05-22T03:08:47.029Z,993.70
2019-05-22T03:09:46.818Z,993.76
2019-05-22T03:10:46.504Z,993.81
2019-05-22T03:11:46.516Z,993.77
2019-05-22T03:12:46.479Z,993.72
2019-05-22T03:13:46.467Z,993.80
2019-05-22T03:14:46.452Z,993.79
2019-05-22T03:15:46.446Z,993.83
2019-05-22T03:16:46.456Z,993.83
2019-05-22T03:17:46.424Z,993.78
2019-05-22T03:18:46.412Z,993.88
2019-05-22T03:19:46.402Z,993.84
2019-05-22T03:20:46.965Z,993.88
2019-05-22T03:21:46.414Z,993.91
2019-05-22T03:22:46.404Z,993.89
2019-05-22T03:23:46.388Z,993.92
2019-05-22T03:24:46.353Z,993.96
2019-05-22T03:25:46.341Z,993.97
2019-05-22T03:26:46.351Z,993.99
2019-05-22T03:27:46.402Z,993.98
2019-05-22T03:28:46.331Z,994.01
2019-05-22T03:29:46.297Z,994.00
2019-05-22T03:30:46.289Z,994.01
2019-05-22T03:31:46.280Z,994.00
2019-05-22T03:32:46.291Z,994.02
2019-05-22T03:33:46.249Z,993.96
2019-05-22T03:34:46.248Z,994.00
2019-05-22T03:35:46.520Z,993.97
2019-05-22T03:36:46.216Z,994.03
2019-05-22T03:37:46.236Z,993.97
2019-05-22T03:38:46.205Z,993.97
2019-05-22T03:39:46.187Z,994.04
2019-05-22T03:40:46.176Z,994.03
2019-05-22T03:41:46.164Z,994.05
2019-05-22T03:42:46.186Z,994.01
2019-05-22T03:43:46.208Z,994.08
2019-05-22T03:44:46.144Z,993.99
2019-05-22T03:45:46.130Z,994.01
2019-05-22T03:46:46.112Z,993.99
2019-05-22T03:47:47.032Z,994.02
2019-05-22T03:48:46.092Z,994.08
2019-05-22T03:49:46.756Z,994.01
2019-05-22T03:50:46.077Z,994.11
2019-05-22T03:51:46.064Z,994.13
2019-05-22T03:52:46.079Z,994.13
2019-05-22T03:53:46.100Z,994.07
2019-05-22T03:54:46.032Z,994.13
2019-05-22T03:55:46.020Z,994.09
2019-05-22T03:56:46.619Z,994.14
2019-05-22T03:57:46.577Z,994.05
2019-05-22T03:58:46.008Z,994.12
2019-05-22T03:59:45.984Z,994.20
2019-05-22T04:00:45.996Z,994.11
2019-05-22T04:01:45.955Z,994.14
2019-05-22T04:02:45.997Z,994.16
2019-05-22T04:03:45.961Z,994.17
2019-05-22T04:04:45.924Z,994.18
2019-05-22T04:05:45.965Z,994.15
2019-05-22T04:06:46.793Z,994.19
2019-05-22T04:07:45.893Z,994.16
2019-05-22T04:08:45.920Z,994.19
2019-05-22T04:09:45.872Z,994.22
2019-05-22T04:10:46.673Z,994.20
2019-05-22T04:11:46.581Z,994.21
2019-05-22T04:12:45.842Z,994.17
2019-05-22T04:13:45.858Z,994.19
2019-05-22T04:14:45.830Z,994.23
2019-05-22T04:15:45.808Z,994.22
2019-05-22T04:16:45.814Z,994.29
2019-05-22T04:17:45.793Z,994.21
2019-05-22T04:18:45.810Z,994.25
2019-05-22T04:19:49.991Z,994.30
2019-05-22T04:20:45.763Z,994.24
2019-05-22T04:21:45.745Z,994.33
2019-05-22T04:22:45.742Z,994.28
2019-05-22T04:23:45.765Z,994.23
2019-05-22T04:24:45.716Z,994.25
2019-05-22T04:25:46.645Z,994.30
2019-05-22T04:26:46.366Z,994.28
2019-05-22T04:27:46.176Z,994.30
2019-05-22T04:28:45.694Z,994.31
2019-05-22T04:29:45.671Z,994.30
2019-05-22T04:30:45.654Z,994.33
2019-05-22T04:31:45.642Z,994.29
2019-05-22T04:32:45.654Z,994.36
2019-05-22T04:33:45.653Z,994.36
2019-05-22T04:34:45.609Z,994.35
2019-05-22T04:35:45.599Z,994.36
2019-05-22T04:36:45.671Z,994.36
2019-05-22T04:37:45.590Z,994.32
2019-05-22T04:38:45.589Z,994.32
2019-05-22T04:39:45.586Z,994.29
2019-05-22T04:40:45.547Z,994.37
2019-05-22T04:41:45.557Z,994.38
2019-05-22T04:42:45.523Z,994.37
2019-05-22T04:43:45.538Z,994.40
2019-05-22T04:44:45.503Z,994.38
2019-05-22T04:45:45.495Z,994.40
2019-05-22T04:46:46.206Z,994.48
2019-05-22T04:47:45.506Z,994.48
2019-05-22T04:48:46.583Z,994.45
2019-05-22T04:49:45.452Z,994.44
2019-05-22T04:50:45.434Z,994.44
2019-05-22T04:51:45.454Z,994.46
2019-05-22T04:52:46.209Z,994.42
2019-05-22T04:53:45.440Z,994.45
2019-05-22T04:54:45.394Z,994.46
2019-05-22T04:55:45.383Z,994.52
2019-05-22T04:56:45.434Z,994.47
2019-05-22T04:57:45.359Z,994.54
2019-05-22T04:58:45.940Z,994.45
2019-05-22T04:59:45.370Z,994.52
2019-05-22T05:00:45.863Z,994.52
2019-05-22T05:01:45.327Z,994.50
2019-05-22T05:02:45.321Z,994.50
2019-05-22T05:03:45.300Z,994.51
2019-05-22T05:04:45.317Z,994.52
2019-05-22T05:05:45.283Z,994.57
2019-05-22T05:06:45.296Z,994.48
2019-05-22T05:07:45.257Z,994.51
2019-05-22T05:08:45.255Z,994.52
2019-05-22T05:09:45.263Z,994.59
2019-05-22T05:10:45.225Z,994.58
2019-05-22T05:11:45.223Z,994.52
2019-05-22T05:12:45.205Z,994.62
2019-05-22T05:13:45.192Z,994.59
2019-05-22T05:14:45.214Z,994.63
2019-05-22T05:15:45.211Z,994.63
2019-05-22T05:16:45.161Z,994.61
2019-05-22T05:17:45.152Z,994.64
2019-05-22T05:18:45.144Z,994.66
2019-05-22T05:19:45.167Z,994.63
2019-05-22T05:20:45.119Z,994.65
2019-05-22T05:21:45.110Z,994.64
2019-05-22T05:22:45.118Z,994.68
2019-05-22T05:23:45.090Z,994.71
2019-05-22T05:24:45.104Z,994.65
2019-05-22T05:25:45.070Z,994.70
2019-05-22T05:26:45.056Z,994.70
2019-05-22T05:27:45.045Z,994.66
2019-05-22T05:28:45.036Z,994.68
2019-05-22T05:29:45.055Z,994.69
2019-05-22T05:30:45.016Z,994.71
2019-05-22T05:31:45.003Z,994.72
2019-05-22T05:32:44.994Z,994.69
2019-05-22T05:33:45.014Z,994.78
2019-05-22T05:34:45.585Z,994.69
2019-05-22T05:35:44.963Z,994.76
2019-05-22T05:36:44.952Z,994.75
2019-05-22T05:37:44.941Z,994.78
2019-05-22T05:38:45.560Z,994.72
2019-05-22T05:39:44.952Z,994.74
2019-05-22T05:40:44.911Z,994.74
2019-05-22T05:41:44.899Z,994.82
2019-05-22T05:42:44.889Z,994.82
2019-05-22T05:43:44.917Z,994.82
2019-05-22T05:44:44.895Z,994.80
2019-05-22T05:45:44.857Z,994.85
2019-05-22T05:46:44.847Z,994.83
2019-05-22T05:47:45.352Z,994.83
2019-05-22T05:48:44.825Z,994.85
2019-05-22T05:49:44.845Z,994.92
2019-05-22T05:50:44.805Z,994.90
2019-05-22T05:51:44.792Z,994.91
2019-05-22T05:52:45.588Z,994.92
2019-05-22T05:53:44.775Z,994.86
2019-05-22T05:54:44.755Z,994.89
2019-05-22T05:55:44.783Z,994.91
2019-05-22T05:56:44.742Z,994.90
2019-05-22T05:57:44.731Z,994.93
2019-05-22T05:58:44.722Z,994.94
2019-05-22T05:59:44.708Z,995.00
2019-05-22T06:00:44.808Z,994.96
2019-05-22T06:01:44.681Z,994.93
2019-05-22T06:02:56.172Z,994.97
2019-05-22T06:03:45.660Z,995.00
2019-05-22T06:04:44.659Z,995.01
2019-05-22T06:05:44.668Z,995.00
2019-05-22T06:06:44.629Z,994.97
2019-05-22T06:07:44.618Z,994.95
2019-05-22T06:08:44.613Z,994.96
2019-05-22T06:09:45.327Z,995.00
2019-05-22T06:10:44.616Z,995.01
2019-05-22T06:11:44.583Z,994.97
2019-05-22T06:12:44.567Z,995.02
2019-05-22T06:13:44.569Z,994.98
2019-05-22T06:14:44.546Z,995.00
2019-05-22T06:15:47.763Z,995.00
2019-05-22T06:16:44.524Z,995.01
2019-05-22T06:17:44.525Z,995.01
2019-05-22T06:18:44.503Z,995.09
2019-05-22T06:19:44.492Z,995.08
2019-05-22T06:20:44.511Z,995.06
2019-05-22T06:21:45.407Z,995.07
2019-05-22T06:22:44.461Z,995.05
2019-05-22T06:23:44.473Z,995.04
2019-05-22T06:24:44.464Z,995.14
2019-05-22T06:25:45.090Z,995.12
2019-05-22T06:26:44.417Z,995.14
2019-05-22T06:27:45.050Z,995.18
2019-05-22T06:28:44.396Z,995.12
2019-05-22T06:29:44.388Z,995.13
2019-05-22T06:30:44.407Z,995.23
2019-05-22T06:31:44.367Z,995.20
2019-05-22T06:32:44.356Z,995.19
2019-05-22T06:33:44.344Z,995.25
2019-05-22T06:34:44.357Z,995.24
2019-05-22T06:35:44.996Z,995.23
2019-05-22T06:36:44.317Z,995.27
2019-05-22T06:37:44.304Z,995.27
2019-05-22T06:38:44.299Z,995.29
2019-05-22T06:39:44.283Z,995.26
2019-05-22T06:40:44.304Z,995.27
2019-05-22T06:41:44.262Z,995.30
2019-05-22T06:42:44.242Z,995.28
2019-05-22T06:43:44.234Z,995.25
2019-05-22T06:44:44.222Z,995.26
2019-05-22T06:45:44.214Z,995.33
2019-05-22T06:46:44.231Z,995.31
2019-05-22T06:47:44.188Z,995.31
2019-05-22T06:48:44.189Z,995.25
2019-05-22T06:49:44.197Z,995.34
2019-05-22T06:50:44.157Z,995.30
2019-05-22T06:51:44.177Z,995.30
2019-05-22T06:52:44.139Z,995.28
2019-05-22T06:53:44.127Z,995.32
2019-05-22T06:54:44.118Z,995.31
2019-05-22T06:55:44.110Z,995.27
2019-05-22T06:56:44.137Z,995.28
2019-05-22T06:57:44.085Z,995.32
2019-05-22T06:58:44.080Z,995.32
2019-05-22T06:59:44.067Z,995.30
2019-05-22T07:00:44.053Z,995.34
2019-05-22T07:01:44.073Z,995.33
2019-05-22T07:02:44.037Z,995.33
2019-05-22T07:03:44.024Z,995.44
2019-05-22T07:04:44.089Z,995.38
2019-05-22T07:05:43.999Z,995.44
2019-05-22T07:06:44.017Z,995.36
2019-05-22T07:07:43.980Z,995.41
2019-05-22T07:08:44.648Z,995.41
2019-05-22T07:09:43.959Z,995.44
2019-05-22T07:10:45.448Z,995.45
2019-05-22T07:11:43.964Z,995.39
2019-05-22T07:12:43.926Z,995.37
2019-05-22T07:13:43.917Z,995.47
2019-05-22T07:14:43.898Z,995.46
2019-05-22T07:15:43.897Z,995.48
2019-05-22T07:16:43.906Z,995.42
2019-05-22T07:17:43.874Z,995.47
2019-05-22T07:18:43.856Z,995.40
2019-05-22T07:19:43.845Z,995.47
2019-05-22T07:20:43.841Z,995.44
2019-05-22T07:21:43.861Z,995.51
2019-05-22T07:22:43.853Z,995.49
2019-05-22T07:23:43.804Z,995.47
2019-05-22T07:24:43.793Z,995.40
2019-05-22T07:25:43.790Z,995.45
2019-05-22T07:26:43.804Z,995.50
2019-05-22T07:27:45.551Z,995.48
2019-05-22T07:28:43.751Z,995.48
2019-05-22T07:29:43.741Z,995.51
2019-05-22T07:30:43.736Z,995.57
2019-05-22T07:31:43.787Z,995.51
2019-05-22T07:32:43.744Z,995.53
2019-05-22T07:33:43.701Z,995.56
2019-05-22T07:34:43.690Z,995.59
2019-05-22T07:36:04.654Z,995.59
2019-05-22T07:36:44.729Z,995.57
2019-05-22T07:37:43.657Z,995.59
2019-05-22T07:38:43.645Z,995.60
2019-05-22T07:39:44.162Z,995.54
2019-05-22T07:40:43.647Z,995.57
2019-05-22T07:41:43.615Z,995.63
2019-05-22T07:42:43.634Z,995.59
2019-05-22T07:43:43.625Z,995.68
2019-05-22T07:44:43.584Z,995.71
2019-05-22T07:45:43.572Z,995.70
2019-05-22T07:46:43.565Z,995.67
2019-05-22T07:47:43.577Z,995.65
2019-05-22T07:48:43.540Z,995.68
2019-05-22T07:49:43.532Z,995.70
2019-05-22T07:50:48.101Z,995.76
2019-05-22T07:51:55.872Z,995.75
2019-05-22T07:52:44.522Z,995.77
2019-05-22T07:53:43.488Z,995.79
2019-05-22T07:54:44.139Z,995.82
2019-05-22T07:55:43.465Z,995.78
2019-05-22T07:56:43.460Z,995.79
2019-05-22T07:57:43.479Z,995.83
2019-05-22T07:58:43.453Z,995.80
2019-05-22T07:59:44.038Z,995.81
2019-05-22T08:00:43.427Z,995.80
2019-05-22T08:01:43.398Z,995.79
2019-05-22T08:02:43.485Z,995.88
2019-05-22T08:03:43.389Z,995.87
2019-05-22T08:04:44.046Z,995.83
2019-05-22T08:05:46.036Z,995.82
2019-05-22T08:06:43.344Z,995.86
2019-05-22T08:07:44.295Z,995.83
2019-05-22T08:08:43.353Z,995.93
2019-05-22T08:09:43.383Z,995.87
2019-05-22T08:10:43.306Z,995.85
2019-05-22T08:11:44.131Z,995.81
2019-05-22T08:12:43.287Z,995.85
2019-05-22T08:13:43.302Z,995.88
2019-05-22T08:14:43.261Z,995.88
2019-05-22T08:15:47.420Z,995.95
2019-05-22T08:16:43.250Z,995.98
2019-05-22T08:17:43.229Z,995.88
2019-05-22T08:18:43.250Z,995.94
2019-05-22T08:19:43.208Z,995.93
2019-05-22T08:20:43.199Z,995.83
2019-05-22T08:21:43.187Z,995.92
2019-05-22T08:22:43.176Z,995.91
2019-05-22T08:23:44.186Z,995.87
2019-05-22T08:24:43.156Z,995.86
2019-05-22T08:25:43.147Z,995.91
2019-05-22T08:26:53.963Z,995.90
2019-05-22T08:27:44.124Z,995.92
2019-05-22T08:28:43.151Z,995.86
2019-05-22T08:29:43.761Z,995.84
2019-05-22T08:30:43.085Z,995.88
2019-05-22T08:31:43.081Z,995.84
2019-05-22T08:32:43.071Z,995.89
2019-05-22T08:33:43.422Z,995.87
2019-05-22T08:34:43.052Z,995.84
2019-05-22T08:35:43.076Z,995.90
2019-05-22T08:36:43.031Z,995.86
2019-05-22T08:37:43.015Z,995.91
2019-05-22T08:38:43.044Z,995.95
2019-05-22T08:39:42.991Z,995.98
2019-05-22T08:40:42.993Z,996.01
2019-05-22T08:41:42.974Z,995.94
2019-05-22T08:42:43.007Z,995.94
2019-05-22T08:44:11.313Z,996.01
2019-05-22T08:44:43.938Z,995.97
2019-05-22T08:45:42.938Z,995.98
2019-05-22T08:46:42.929Z,995.97
2019-05-22T08:47:42.907Z,995.93
2019-05-22T08:48:48.275Z,996.02
2019-05-22T08:49:43.904Z,996.05
2019-05-22T08:50:42.910Z,996.00
2019-05-22T08:51:42.887Z,996.03
2019-05-22T08:52:42.864Z,996.03
2019-05-22T08:53:47.276Z,996.03
2019-05-22T08:54:43.861Z,996.00
2019-05-22T08:55:42.826Z,995.99
2019-05-22T08:56:42.813Z,996.02
2019-05-22T08:57:42.801Z,996.08
2019-05-22T08:58:43.765Z,996.06
2019-05-22T08:59:42.942Z,996.00
2019-05-22T09:00:42.772Z,996.09
2019-05-22T09:01:42.761Z,996.04
2019-05-22T09:02:42.751Z,996.11
2019-05-22T09:03:42.739Z,996.13
2019-05-22T09:04:43.381Z,996.15
2019-05-22T09:05:42.721Z,996.10
2019-05-22T09:06:42.709Z,996.11
2019-05-22T09:07:42.697Z,996.13
2019-05-22T09:08:42.687Z,996.13
2019-05-22T09:09:42.708Z,996.09
2019-05-22T09:10:42.667Z,996.19
2019-05-22T09:11:42.659Z,996.20
2019-05-22T09:12:43.296Z,996.19
2019-05-22T09:13:42.625Z,996.16
2019-05-22T09:14:42.645Z,996.20
2019-05-22T09:15:42.651Z,996.28
2019-05-22T09:16:42.604Z,996.27
2019-05-22T09:17:42.592Z,996.22
2019-05-22T09:18:42.589Z,996.27
2019-05-22T09:19:42.609Z,996.24
2019-05-22T09:20:49.436Z,996.24
2019-05-22T09:21:43.551Z,996.28
2019-05-22T09:22:42.560Z,996.28
2019-05-22T09:23:43.200Z,996.29
2019-05-22T09:24:42.517Z,996.35
2019-05-22T09:25:42.531Z,996.38
2019-05-22T09:26:42.491Z,996.25
2019-05-22T09:27:42.487Z,996.36
2019-05-22T09:28:42.477Z,996.19
2019-05-22T09:29:42.459Z,996.34
2019-05-22T09:30:42.519Z,996.32
2019-05-22T09:31:42.436Z,996.36
2019-05-22T09:32:42.436Z,996.33
2019-05-22T09:33:42.426Z,996.32
2019-05-22T09:34:42.406Z,996.32
2019-05-22T09:35:42.558Z,996.31
2019-05-22T09:36:42.385Z,996.28
2019-05-22T09:37:42.376Z,996.26
2019-05-22T09:38:43.324Z,996.30
2019-05-22T09:39:42.364Z,996.36
2019-05-22T09:40:42.373Z,996.37
2019-05-22T09:41:42.333Z,996.32
2019-05-22T09:42:42.323Z,996.37
2019-05-22T09:43:42.313Z,996.45
2019-05-22T09:44:42.338Z,996.37
2019-05-22T09:45:42.320Z,996.35
2019-05-22T09:46:43.232Z,996.34
2019-05-22T09:47:42.276Z,996.43
2019-05-22T09:48:42.261Z,996.40
2019-05-22T09:49:42.249Z,996.45
2019-05-22T09:50:42.273Z,996.48
2019-05-22T09:51:42.231Z,996.40
2019-05-22T09:52:56.430Z,996.45
2019-05-22T09:53:43.207Z,996.55
2019-05-22T09:54:42.198Z,996.53
2019-05-22T09:55:46.801Z,996.51
2019-05-22T09:56:43.176Z,996.44
2019-05-22T09:57:42.191Z,996.44
2019-05-22T09:58:42.868Z,996.56
2019-05-22T09:59:42.162Z,996.40
2019-05-22T10:00:42.166Z,996.49
2019-05-22T10:01:42.123Z,996.48
2019-05-22T10:02:42.169Z,996.51
2019-05-22T10:03:42.100Z,996.46
2019-05-22T10:04:42.085Z,996.64
2019-05-22T10:05:42.155Z,996.62
2019-05-22T10:06:42.123Z,996.58
2019-05-22T10:07:57.945Z,996.60
2019-05-22T10:08:43.043Z,996.39
2019-05-22T10:09:42.039Z,996.57
2019-05-22T10:10:42.030Z,996.59
2019-05-22T10:11:42.047Z,996.57
2019-05-22T10:12:42.010Z,996.65
2019-05-22T10:13:42.121Z,996.64
2019-05-22T10:14:42.029Z,996.61
2019-05-22T10:15:41.970Z,996.72
2019-05-22T10:16:41.996Z,996.66
2019-05-22T10:17:41.956Z,996.72
2019-05-22T10:18:41.942Z,996.66
2019-05-22T10:19:41.937Z,996.71
2019-05-22T10:20:41.918Z,996.69
2019-05-22T10:21:41.959Z,996.69
2019-05-22T10:22:42.398Z,996.76
2019-05-22T10:23:41.911Z,996.77
2019-05-22T10:24:41.877Z,996.77
2019-05-22T10:25:41.868Z,996.73
2019-05-22T10:26:42.076Z,996.77
2019-05-22T10:27:42.398Z,996.82
2019-05-22T10:28:41.845Z,996.75
2019-05-22T10:29:41.824Z,996.83
2019-05-22T10:30:41.885Z,996.84
2019-05-22T10:31:41.834Z,996.82
2019-05-22T10:32:41.792Z,996.80
2019-05-22T10:33:41.783Z,996.80
2019-05-22T10:34:41.775Z,996.73
2019-05-22T10:35:41.761Z,996.68
2019-05-22T10:36:43.199Z,996.68
2019-05-22T10:37:41.741Z,996.73
2019-05-22T10:38:41.730Z,996.76
2019-05-22T10:39:41.719Z,996.69
2019-05-22T10:40:41.709Z,996.76
2019-05-22T10:41:41.719Z,996.77
2019-05-22T10:42:44.662Z,996.76
2019-05-22T10:43:41.677Z,996.75
2019-05-22T10:44:41.666Z,996.69
2019-05-22T10:45:41.656Z,996.80
2019-05-22T10:46:42.317Z,996.70
2019-05-22T10:47:41.655Z,996.70
2019-05-22T10:48:41.647Z,996.77
2019-05-22T10:49:41.615Z,996.81
2019-05-22T10:50:41.606Z,996.79
2019-05-22T10:51:41.630Z,996.83
2019-05-22T10:52:41.616Z,996.75
2019-05-22T10:53:41.574Z,996.80
2019-05-22T10:54:41.564Z,996.82
2019-05-22T10:55:41.552Z,996.81
2019-05-22T10:56:41.594Z,996.81
2019-05-22T10:57:42.236Z,996.81
2019-05-22T10:58:41.528Z,996.77
2019-05-22T10:59:41.535Z,996.89
2019-05-22T11:00:41.501Z,996.82
2019-05-22T11:01:42.442Z,996.91
2019-05-22T11:02:41.532Z,996.82
2019-05-22T11:03:41.474Z,996.85
2019-05-22T11:04:41.476Z,996.88
2019-05-22T11:05:41.441Z,996.79
2019-05-22T11:06:41.430Z,996.91
2019-05-22T11:07:41.446Z,996.83
2019-05-22T11:08:41.414Z,996.92
2019-05-22T11:09:41.399Z,996.80
2019-05-22T11:10:45.030Z,996.95
2019-05-22T11:11:41.382Z,996.90
2019-05-22T11:12:41.398Z,996.82
2019-05-22T11:13:41.358Z,996.93
2019-05-22T11:14:41.347Z,996.88
2019-05-22T11:15:41.336Z,996.98
2019-05-22T11:16:41.326Z,996.91
2019-05-22T11:17:41.348Z,996.91
2019-05-22T11:18:42.050Z,996.94
2019-05-22T11:19:41.305Z,996.95
2019-05-22T11:20:41.288Z,996.96
2019-05-22T11:21:41.275Z,997.02
2019-05-22T11:22:41.286Z,996.95
2019-05-22T11:23:51.411Z,996.96
2019-05-22T11:24:42.244Z,997.01
2019-05-22T11:25:41.235Z,997.01
2019-05-22T11:26:41.225Z,997.04
2019-05-22T11:27:41.235Z,997.04
2019-05-22T11:28:42.913Z,997.02
2019-05-22T11:29:41.199Z,997.10
2019-05-22T11:30:41.192Z,997.03
2019-05-22T11:31:41.161Z,997.05
2019-05-22T11:32:41.204Z,997.07
2019-05-22T11:33:41.150Z,997.13
2019-05-22T11:34:41.910Z,997.11
2019-05-22T11:35:41.132Z,997.05
2019-05-22T11:36:41.115Z,997.04
2019-05-22T11:37:41.099Z,997.08
2019-05-22T11:38:41.127Z,997.17
2019-05-22T11:39:44.715Z,997.15
2019-05-22T11:40:41.074Z,997.20
2019-05-22T11:41:41.058Z,997.11
2019-05-22T11:42:41.067Z,997.12
2019-05-22T11:43:41.079Z,997.18
2019-05-22T11:44:41.030Z,997.02
2019-05-22T11:45:44.777Z,996.99
2019-05-22T11:46:41.005Z,997.20
2019-05-22T11:47:41.012Z,997.12
2019-05-22T11:48:41.016Z,997.18
2019-05-22T11:49:40.974Z,997.21
2019-05-22T11:50:40.972Z,997.21
2019-05-22T11:51:40.952Z,997.15
2019-05-22T11:52:41.513Z,997.13
2019-05-22T11:53:40.992Z,997.16
2019-05-22T11:54:40.921Z,997.10
2019-05-22T11:55:45.619Z,997.20
2019-05-22T11:56:41.917Z,997.17
2019-05-22T11:57:40.892Z,997.12
2019-05-22T11:58:40.910Z,997.22
2019-05-22T11:59:40.868Z,997.09
2019-05-22T12:00:40.863Z,997.19
2019-05-22T12:01:40.852Z,997.15
2019-05-22T12:02:40.875Z,997.23
2019-05-22T12:03:40.849Z,997.23
2019-05-22T12:04:47.745Z,997.16
2019-05-22T12:05:41.809Z,997.18
2019-05-22T12:06:40.795Z,997.21
2019-05-22T12:07:40.779Z,997.21
2019-05-22T12:08:40.886Z,997.22
2019-05-22T12:09:40.765Z,997.31
2019-05-22T12:10:40.754Z,997.24
2019-05-22T12:11:43.174Z,997.32
2019-05-22T12:12:40.726Z,997.30
2019-05-22T12:13:40.746Z,997.22
2019-05-22T12:14:40.733Z,997.30
2019-05-22T12:15:41.294Z,997.27
2019-05-22T12:16:40.693Z,997.29
2019-05-22T12:17:40.674Z,997.28
2019-05-22T12:18:40.701Z,997.32
2019-05-22T12:19:40.715Z,997.29
2019-05-22T12:20:40.650Z,997.20
2019-05-22T12:21:40.637Z,997.30
2019-05-22T12:22:40.625Z,997.24
2019-05-22T12:23:41.270Z,997.34
2019-05-22T12:24:40.600Z,997.26
2019-05-22T12:25:40.613Z,997.26
2019-05-22T12:26:40.581Z,997.26
2019-05-22T12:27:40.569Z,997.32
2019-05-22T12:28:40.587Z,997.31